Terminal Aerodrome Forecast
Issued by NWS

Home | Current Version | Previous Version | Text Only | Print | Product List | Glossary On
Versions: 1 2 3 4 5 6 7 8 9 10 11 12 13 14 15 16 17 18 19 20 21 22
595
FTUS41 KOKX 112321
TAFSWF
TAF
KSWF 112321Z 1200/1306 29017G26KT P6SM SCT050
     FM120400 29013G20KT P6SM FEW050
     FM120700 27007KT P6SM SKC
     FM121800 24010KT P6SM SCT040 BKN100
     FM122200 24005KT P6SM SCT040 BKN080
      AMD NOT SKED=

USA.gov is the U.S. government's official web portal to all federal, state and local government web resources and services.